Time;durP1;ratioP1;P1;durP2;ratioP2;P2;SDS_P1;SDS_P2;PMS_P1;PMS_P2;Temp;Humidity;BMP_temperature;BMP_pressure;BME280_temperature;BME280_humidity;BME280_pressure;Samples;Min_cycle;Max_cycle;Signal;HPM_P1;HPM_P2
2022/05/18 00:00:11;;;;;;;4.38;1.88;;;19.30;99.90;;;;;;5054279;28;20028;-66
2022/05/18 00:02:38;;;;;;;5.78;2.75;;;19.30;99.90;;;;;;5054085;28;20021;-68
2022/05/18 00:05:05;;;;;;;5.82;1.95;;;19.30;99.90;;;;;;5054349;28;20390;-67
2022/05/18 00:07:31;;;;;;;3.05;2.00;;;19.30;99.90;;;;;;5036351;28;20426;-66
2022/05/18 00:09:56;;;;;;;5.93;2.10;;;19.30;99.90;;;;;;5054208;28;20025;-67
2022/05/18 00:12:22;;;;;;;4.85;2.25;;;19.30;99.90;;;;;;5054252;28;20032;-68
2022/05/18 00:14:48;;;;;;;4.22;1.92;;;19.30;99.90;;;;;;5054401;28;20048;-67
2022/05/18 00:17:14;;;;;;;4.80;2.08;;;19.20;99.90;;;;;;5053966;28;20029;-67
2022/05/18 00:19:39;;;;;;;6.35;2.30;;;19.30;99.90;;;;;;5054334;28;20099;-68
2022/05/18 00:22:05;;;;;;;3.75;2.10;;;19.30;99.90;;;;;;5035844;28;20127;-68
2022/05/18 00:24:31;;;;;;;4.30;2.15;;;19.30;99.90;;;;;;5053396;28;20557;-67
2022/05/18 00:26:56;;;;;;;4.13;1.90;;;19.20;99.90;;;;;;5035605;28;20089;-67
2022/05/18 00:29:22;;;;;;;3.35;1.90;;;19.20;99.90;;;;;;5053633;28;20475;-67
2022/05/18 00:31:48;;;;;;;4.15;2.10;;;19.20;99.90;;;;;;5053600;28;20160;-68
2022/05/18 00:34:16;;;;;;;4.18;2.10;;;19.20;99.90;;;;;;5035285;28;20497;-67
2022/05/18 00:36:42;;;;;;;2.70;2.03;;;19.10;99.90;;;;;;5035546;28;20028;-67
2022/05/18 00:39:08;;;;;;;3.97;2.05;;;19.10;99.90;;;;;;5053290;28;20033;-67
2022/05/18 00:41:34;;;;;;;6.68;2.03;;;19.10;99.90;;;;;;5035646;28;20039;-67
2022/05/18 00:44:00;;;;;;;7.25;2.00;;;19.10;99.90;;;;;;5035336;28;20043;-67
2022/05/18 00:46:25;;;;;;;4.82;1.98;;;19.10;99.90;;;;;;5054258;28;20055;-67
2022/05/18 00:48:53;;;;;;;4.90;2.13;;;19.10;99.90;;;;;;5056206;28;20028;-68
2022/05/18 00:51:27;;;;;;;4.75;2.05;;;19.10;99.90;;;;;;5054566;28;20096;-68
2022/05/18 00:54:21;;;;;;;4.18;2.13;;;19.10;99.90;;;;;;5053513;28;20388;-67
2022/05/18 00:56:56;;;;;;;3.22;1.77;;;19.00;99.90;;;;;;5053622;28;20043;-67
2022/05/18 00:59:42;;;;;;;3.30;2.10;;;19.00;99.90;;;;;;5053461;28;20100;-67
2022/05/18 01:02:09;;;;;;;3.55;2.00;;;19.00;99.90;;;;;;5053361;28;20075;-67
2022/05/18 01:04:35;;;;;;;5.75;2.53;;;19.00;99.90;;;;;;5052872;28;20021;-67
2022/05/18 01:07:06;;;;;;;3.90;1.98;;;19.00;99.90;;;;;;5053226;28;20044;-67
2022/05/18 01:09:38;;;;;;;3.55;2.00;;;19.00;99.90;;;;;;5053426;28;20108;-66
2022/05/18 01:12:05;;;;;;;5.38;2.00;;;18.90;99.90;;;;;;5052960;28;20021;-67
2022/05/18 01:14:34;;;;;;;3.55;2.08;;;18.90;99.90;;;;;;5052803;28;20023;-67
2022/05/18 01:17:00;;;;;;;6.38;2.15;;;18.90;99.90;;;;;;5052806;28;20025;-68
2022/05/18 01:19:44;;;;;;;3.88;2.10;;;18.90;99.90;;;;;;5052790;28;20021;-67
2022/05/18 01:22:10;;;;;;;4.40;2.15;;;18.80;99.90;;;;;;5052826;28;20059;-68
2022/05/18 01:24:44;;;;;;;4.00;2.23;;;18.80;99.90;;;;;;5052779;28;20025;-66
2022/05/18 01:27:10;;;;;;;4.32;2.60;;;18.80;99.90;;;;;;5052515;28;20260;-66
2022/05/18 01:29:36;;;;;;;3.65;1.95;;;18.80;99.90;;;;;;5052821;28;20025;-67
2022/05/18 01:32:04;;;;;;;6.57;2.17;;;18.70;99.90;;;;;;5052700;28;20097;-67
2022/05/18 01:34:34;;;;;;;4.75;2.25;;;18.70;99.90;;;;;;5034729;28;20108;-66
2022/05/18 01:36:59;;;;;;;3.08;2.10;;;18.70;99.90;;;;;;5034815;28;20018;-67
2022/05/18 01:39:32;;;;;;;4.95;2.00;;;18.70;99.90;;;;;;5052676;28;20089;-67
2022/05/18 01:42:06;;;;;;;3.60;2.10;;;18.60;99.90;;;;;;5052528;28;20025;-67
2022/05/18 01:44:37;;;;;;;4.60;2.15;;;18.60;99.90;;;;;;5052664;28;20045;-67
2022/05/18 01:47:03;;;;;;;5.00;2.00;;;18.60;99.90;;;;;;5052773;28;20029;-66
2022/05/18 01:49:29;;;;;;;6.32;2.25;;;18.50;99.90;;;;;;5052863;28;20383;-66
2022/05/18 01:51:56;;;;;;;5.18;1.98;;;18.40;99.90;;;;;;5052915;28;20032;-67
2022/05/18 01:54:21;;;;;;;3.85;2.28;;;18.40;99.90;;;;;;5052670;28;20506;-66
2022/05/18 01:56:47;;;;;;;5.15;2.25;;;18.40;99.90;;;;;;5053019;28;20064;-67
2022/05/18 01:59:13;;;;;;;3.95;2.10;;;18.40;99.90;;;;;;5053442;28;20499;-66
2022/05/18 02:01:38;;;;;;;2.75;2.03;;;18.40;99.90;;;;;;5034799;28;20109;-67
2022/05/18 02:04:04;;;;;;;4.50;2.20;;;18.30;99.90;;;;;;5035124;28;20022;-66
2022/05/18 02:06:32;;;;;;;7.47;2.03;;;18.30;99.90;;;;;;5052766;28;20499;-67
2022/05/18 02:08:59;;;;;;;3.70;1.95;;;18.30;99.90;;;;;;5034675;28;20087;-67
2022/05/18 02:11:24;;;;;;;;;;;18.20;99.90;;;;;;5052782;28;20031;-66
2022/05/18 02:13:51;;;;;;;3.33;2.40;;;18.20;99.90;;;;;;5052375;28;19905;-66
2022/05/18 02:16:17;;;;;;;6.88;2.03;;;18.20;99.90;;;;;;5034593;28;20111;-67
2022/05/18 02:18:42;;;;;;;4.60;2.20;;;18.20;99.90;;;;;;5035638;28;20053;-66
2022/05/18 02:21:10;;;;;;;4.18;2.20;;;18.20;99.90;;;;;;5055947;28;20103;-67
2022/05/18 02:23:37;;;;;;;5.43;2.33;;;18.20;99.90;;;;;;5056032;28;20029;-66
2022/05/18 02:26:13;;;;;;;4.07;2.03;;;18.20;99.90;;;;;;5055952;28;20029;-67
2022/05/18 02:28:39;;;;;;;3.88;1.92;;;18.20;99.90;;;;;;5056959;28;20026;-67
2022/05/18 02:31:04;;;;;;;6.30;2.17;;;18.20;99.90;;;;;;5056008;28;20387;-67
2022/05/18 02:33:30;;;;;;;5.18;1.80;;;18.20;99.90;;;;;;5055709;28;20099;-66
2022/05/18 02:35:56;;;;;;;4.25;1.83;;;18.30;99.90;;;;;;5055724;28;20455;-67
2022/05/18 02:38:22;;;;;;;3.78;2.20;;;18.30;99.90;;;;;;5057259;28;20033;-66
2022/05/18 02:40:47;;;;;;;3.47;1.90;;;18.30;99.90;;;;;;5058696;28;20108;-67
2022/05/18 02:43:13;;;;;;;3.05;2.10;;;18.30;99.90;;;;;;5059700;28;20024;-68
2022/05/18 02:45:39;;;;;;;6.20;2.30;;;18.30;99.90;;;;;;5059624;28;20077;-67
2022/05/18 02:48:05;;;;;;;5.13;2.17;;;18.30;99.90;;;;;;5058624;28;20033;-67
2022/05/18 02:50:33;;;;;;;3.05;1.80;;;18.30;99.90;;;;;;5040305;28;20041;-67
2022/05/18 02:52:59;;;;;;;2.67;1.92;;;18.30;99.90;;;;;;5056285;28;20017;-68
2022/05/18 02:58:09;;;;;;;4.13;2.35;;;18.30;99.90;;;;;;5057244;28;20041;-67
2022/05/18 03:00:35;;;;;;;3.90;2.38;;;18.30;99.90;;;;;;5055919;28;20025;-66
2022/05/18 03:03:00;;;;;;;3.70;1.92;;;18.30;99.90;;;;;;5057207;28;20028;-67
2022/05/18 03:05:26;;;;;;;3.60;2.10;;;18.20;99.90;;;;;;5040626;28;20029;-67
2022/05/18 03:07:51;;;;;;;3.95;2.03;;;18.20;99.90;;;;;;5058077;28;20476;-66
2022/05/18 03:10:18;;;;;;;5.50;2.10;;;18.20;99.90;;;;;;5056572;28;20029;-66
2022/05/18 03:12:44;;;;;;;5.20;2.53;;;18.20;99.90;;;;;;5056422;28;20021;-66
2022/05/18 03:15:12;;;;;;;6.25;2.17;;;18.20;99.90;;;;;;5056105;28;20029;-67
2022/05/18 03:17:38;;;;;;;4.20;2.15;;;18.20;99.90;;;;;;5055199;28;20029;-67
2022/05/18 03:20:04;;;;;;;3.58;2.00;;;18.20;99.90;;;;;;5055419;28;20032;-67
2022/05/18 03:25:14;;;;;;;4.40;2.15;;;18.20;99.90;;;;;;5055477;28;20067;-66
2022/05/18 03:27:43;;;;;;;4.00;2.08;;;18.20;99.90;;;;;;5055269;28;20414;-67
2022/05/18 03:30:11;;;;;;;7.50;2.38;;;18.20;99.90;;;;;;5036753;28;20132;-67
2022/05/18 03:32:37;;;;;;;4.70;2.22;;;18.20;99.90;;;;;;5054655;28;20013;-67
2022/05/18 03:35:03;;;;;;;3.75;2.38;;;18.10;99.90;;;;;;5054717;28;20025;-67
2022/05/18 03:37:29;;;;;;;3.72;2.67;;;18.10;99.90;;;;;;5054807;28;20068;-67
2022/05/18 03:39:54;;;;;;;5.13;2.40;;;18.00;99.90;;;;;;5054636;28;20096;-66
2022/05/18 03:42:20;;;;;;;5.13;2.30;;;17.90;99.90;;;;;;5054898;28;20041;-67
2022/05/18 03:44:45;;;;;;;4.30;2.67;;;17.80;99.90;;;;;;5036762;28;20032;-68
2022/05/18 03:47:11;;;;;;;5.50;2.27;;;17.70;99.90;;;;;;5054969;28;20275;-67
2022/05/18 03:49:37;;;;;;;4.03;2.50;;;17.60;99.90;;;;;;5037743;28;20256;-68
2022/05/18 03:52:03;;;;;;;3.17;2.20;;;17.60;99.90;;;;;;5055703;28;20029;-66
2022/05/18 03:54:29;;;;;;;3.15;2.28;;;17.50;99.90;;;;;;5055225;28;20037;-67
2022/05/18 03:56:54;;;;;;;4.72;2.40;;;17.50;99.90;;;;;;5054337;28;20071;-67
2022/05/18 03:59:20;;;;;;;4.93;2.85;;;17.50;99.90;;;;;;5054551;28;20434;-67
2022/05/18 04:01:45;;;;;;;5.47;2.45;;;17.50;99.90;;;;;;5054793;28;20032;-67
2022/05/18 04:04:11;;;;;;;5.72;2.88;;;17.50;99.90;;;;;;5054579;28;20487;-67
2022/05/18 04:06:37;;;;;;;6.85;3.00;;;17.60;99.90;;;;;;5054272;28;20052;-67
2022/05/18 04:09:03;;;;;;;2.47;2.00;;;17.60;99.90;;;;;;5053724;28;20029;-67
2022/05/18 04:11:31;;;;;;;;;;;17.60;99.90;;;;;;5036741;28;20074;-67
2022/05/18 04:13:57;;;;;;;5.00;2.53;;;17.70;99.90;;;;;;5054620;28;19905;-67
2022/05/18 04:16:23;;;;;;;4.00;1.90;;;17.80;99.90;;;;;;5036213;28;20028;-68
2022/05/18 04:18:48;;;;;;;4.72;2.30;;;17.90;99.90;;;;;;5053860;28;20044;-67
2022/05/18 04:21:14;;;;;;;5.77;2.50;;;18.00;99.90;;;;;;5053619;28;20454;-67
2022/05/18 04:23:41;;;;;;;4.43;2.58;;;18.00;99.90;;;;;;5053707;28;20267;-67
2022/05/18 04:26:08;;;;;;;3.45;2.17;;;18.10;99.90;;;;;;5053906;28;20025;-67
2022/05/18 04:28:34;;;;;;;4.40;2.50;;;18.10;99.90;;;;;;5053660;28;20063;-67
2022/05/18 04:31:01;;;;;;;4.10;2.33;;;18.20;99.90;;;;;;5054400;28;20031;-67
2022/05/18 04:33:27;;;;;;;4.00;2.08;;;18.20;99.90;;;;;;5055698;28;20040;-67
2022/05/18 04:35:52;;;;;;;4.78;2.33;;;18.30;99.90;;;;;;5057965;28;20021;-67
2022/05/18 04:38:21;;;;;;;4.93;2.22;;;18.30;99.90;;;;;;5056724;28;20029;-68
2022/05/18 04:40:47;;;;;;;3.95;2.10;;;18.40;99.90;;;;;;5056059;28;20086;-67
2022/05/18 04:43:14;;;;;;;3.45;2.00;;;18.40;99.90;;;;;;5054979;28;20029;-67
2022/05/18 04:45:44;;;;;;;4.22;2.38;;;18.50;99.90;;;;;;5056927;28;20025;-68
2022/05/18 04:48:12;;;;;;;2.90;2.30;;;18.50;99.90;;;;;;5053931;28;20017;-67
2022/05/18 04:50:38;;;;;;;6.30;3.00;;;18.60;99.90;;;;;;5054836;28;20097;-67
2022/05/18 04:53:03;;;;;;;4.40;2.33;;;18.70;99.90;;;;;;5055307;28;20474;-67
2022/05/18 04:55:29;;;;;;;4.28;2.30;;;18.70;99.90;;;;;;5055802;28;20415;-68
2022/05/18 04:58:00;;;;;;;4.53;2.53;;;18.80;99.90;;;;;;5054831;28;20441;-71
2022/05/18 05:00:26;;;;;;;3.33;2.10;;;18.80;99.90;;;;;;5055152;28;20116;-69
2022/05/18 05:02:55;;;;;;;4.40;2.47;;;18.80;99.90;;;;;;5055480;28;20060;-67
2022/05/18 05:05:21;;;;;;;3.53;2.10;;;18.90;99.90;;;;;;5055484;28;20029;-67
2022/05/18 05:07:47;;;;;;;4.03;2.00;;;18.90;99.90;;;;;;5054281;28;20028;-67
2022/05/18 05:10:12;;;;;;;6.47;2.33;;;18.90;99.90;;;;;;5053967;28;20404;-66
2022/05/18 05:12:38;;;;;;;4.40;2.80;;;19.00;99.90;;;;;;5053623;28;20096;-66
2022/05/18 05:15:04;;;;;;;3.60;2.00;;;19.00;99.90;;;;;;5053699;28;20104;-66
2022/05/18 05:17:30;;;;;;;4.82;2.25;;;19.00;99.90;;;;;;5054862;28;20025;-66
2022/05/18 05:19:57;;;;;;;7.38;2.55;;;19.00;99.90;;;;;;5056589;28;20486;-66
2022/05/18 05:22:23;;;;;;;3.70;2.63;;;19.00;99.90;;;;;;5057331;28;20036;-67
2022/05/18 05:24:49;;;;;;;5.05;2.90;;;19.00;99.90;;;;;;5055717;28;20028;-66
2022/05/18 05:27:14;;;;;;;8.85;2.80;;;19.10;99.90;;;;;;5055370;28;20025;-67
2022/05/18 05:29:40;;;;;;;8.23;3.28;;;19.10;99.90;;;;;;5054068;28;20025;-66
2022/05/18 05:32:08;;;;;;;4.78;2.70;;;19.10;99.90;;;;;;5053258;28;20119;-66
2022/05/18 05:34:34;;;;;;;4.47;2.63;;;19.10;99.90;;;;;;5053481;28;20018;-65
2022/05/18 05:37:00;;;;;;;7.80;2.67;;;19.10;99.90;;;;;;5053806;28;20432;-66
2022/05/18 05:39:26;;;;;;;7.80;3.50;;;19.10;99.90;;;;;;5054584;28;20025;-66
2022/05/18 05:41:51;;;;;;;4.03;2.40;;;19.10;99.90;;;;;;5053545;28;20044;-68
2022/05/18 05:44:17;;;;;;;5.97;2.40;;;19.10;99.90;;;;;;5052998;28;20036;-66
2022/05/18 05:46:44;;;;;;;4.90;2.45;;;19.10;99.90;;;;;;5053336;28;20021;-67
2022/05/18 05:49:11;;;;;;;7.03;3.22;;;19.10;99.90;;;;;;5052913;28;20025;-66
2022/05/18 05:51:37;;;;;;;6.28;2.97;;;19.10;99.90;;;;;;5052873;28;20048;-67
2022/05/18 05:54:03;;;;;;;5.95;3.00;;;19.20;99.90;;;;;;5054465;28;20380;-67
2022/05/18 05:56:28;;;;;;;5.55;2.97;;;19.10;99.90;;;;;;5079556;22;20037;-66
2022/05/18 05:58:54;;;;;;;7.72;2.55;;;19.20;99.90;;;;;;5037780;28;20025;-66
2022/05/18 06:01:20;;;;;;;7.25;2.90;;;19.20;99.90;;;;;;5055496;28;20029;-66
2022/05/18 06:03:46;;;;;;;8.15;3.10;;;19.20;99.90;;;;;;5037943;28;20387;-66
2022/05/18 06:06:12;;;;;;;5.10;2.33;;;19.20;99.90;;;;;;5037646;28;20072;-65
2022/05/18 06:08:38;;;;;;;7.05;3.33;;;19.20;99.90;;;;;;5055921;28;20053;-66
2022/05/18 06:11:06;;;;;;;7.43;2.80;;;19.30;99.90;;;;;;5055886;28;20036;-67
2022/05/18 06:13:32;;;;;;;3.67;2.53;;;19.30;99.90;;;;;;5055793;28;20025;-66
2022/05/18 06:15:59;;;;;;;4.22;2.42;;;19.40;99.90;;;;;;5055634;28;20029;-66
2022/05/18 06:18:26;;;;;;;15.00;8.80;;;19.40;99.90;;;;;;5055190;28;20437;-65
2022/05/18 06:20:52;;;;;;;4.40;2.80;;;19.50;99.90;;;;;;5055382;28;20104;-66
2022/05/18 06:23:18;;;;;;;4.40;2.67;;;19.50;99.90;;;;;;5037190;28;20395;-66
2022/05/18 06:25:44;;;;;;;6.10;2.50;;;19.60;99.90;;;;;;5055208;28;20029;-66
2022/05/18 06:28:10;;;;;;;6.22;2.85;;;19.70;99.90;;;;;;5037716;28;20033;-66
2022/05/18 06:30:36;;;;;;;3.47;2.60;;;19.70;99.90;;;;;;5057199;28;20104;-66
2022/05/18 06:33:03;;;;;;;4.60;2.78;;;19.80;99.90;;;;;;5037187;28;20112;-66
2022/05/18 06:35:28;;;;;;;7.88;2.63;;;19.80;99.90;;;;;;5055182;28;20036;-67
2022/05/18 06:37:54;;;;;;;8.82;2.88;;;19.90;99.90;;;;;;5055802;28;20035;-66
2022/05/18 06:40:20;;;;;;;7.45;3.40;;;20.00;99.90;;;;;;5055249;28;20426;-65
2022/05/18 06:42:45;;;;;;;7.80;2.80;;;20.00;99.90;;;;;;5036736;28;20047;-66
2022/05/18 06:45:13;;;;;;;5.90;2.92;;;20.10;99.90;;;;;;5054394;28;20033;-68
2022/05/18 06:47:39;;;;;;;6.78;4.00;;;20.30;99.90;;;;;;5054854;28;20070;-66
2022/05/18 06:50:07;;;;;;;4.95;3.28;;;20.30;99.90;;;;;;5054962;28;20025;-66
2022/05/18 06:52:33;;;;;;;8.38;2.65;;;20.40;99.90;;;;;;5056308;28;20028;-66
2022/05/18 06:54:58;;;;;;;5.50;2.40;;;20.50;99.90;;;;;;5037322;28;20025;-66
2022/05/18 06:57:25;;;;;;;4.40;2.42;;;20.50;99.90;;;;;;5054993;28;20056;-66
2022/05/18 06:59:51;;;;;;;9.57;2.90;;;20.60;99.90;;;;;;5054631;28;20061;-66
2022/05/18 07:02:16;;;;;;;6.55;2.45;;;20.70;99.90;;;;;;5054912;28;20032;-66
2022/05/18 07:04:42;;;;;;;5.85;2.85;;;20.80;99.90;;;;;;5054583;28;20067;-66
2022/05/18 07:07:07;;;;;;;7.13;2.42;;;20.90;99.90;;;;;;5036714;28;20048;-65
2022/05/18 07:09:33;;;;;;;5.57;2.28;;;21.10;99.90;;;;;;5054642;28;20028;-65
2022/05/18 07:11:59;;;;;;;5.30;2.67;;;21.20;99.90;;;;;;5054654;28;20074;-65
2022/05/18 07:14:27;;;;;;;4.55;2.00;;;21.30;99.90;;;;;;5054186;28;20025;-66
2022/05/18 07:16:53;;;;;;;3.50;2.35;;;21.30;99.90;;;;;;5054190;28;20150;-66
2022/05/18 07:19:20;;;;;;;8.35;2.72;;;21.40;99.90;;;;;;5054211;28;20078;-66
2022/05/18 07:21:47;;;;;;;5.15;2.90;;;21.50;99.90;;;;;;5054415;28;20025;-65
2022/05/18 07:24:13;;;;;;;6.90;2.42;;;21.70;99.90;;;;;;5036490;28;20024;-65
2022/05/18 07:26:39;;;;;;;;;;;21.80;99.90;;;;;;5054365;28;20391;-65
2022/05/18 07:29:06;;;;;;;9.00;2.50;;;21.90;99.90;;;;;;5054201;28;19999;-65
2022/05/18 07:32:08;;;;;;;5.20;2.50;;;22.00;99.30;;;;;;5054415;28;20060;-66
2022/05/18 07:34:18;;;;;;;3.35;2.35;;;22.20;98.80;;;;;;5054364;28;20032;-66
2022/05/18 07:36:44;;;;;;;5.13;2.20;;;22.20;98.90;;;;;;5053988;28;20028;-65
2022/05/18 07:39:11;;;;;;;4.57;2.63;;;22.30;98.90;;;;;;5054049;28;20407;-66
2022/05/18 07:41:37;;;;;;;6.53;2.40;;;22.40;98.70;;;;;;5035883;28;20059;-65
2022/05/18 07:44:03;;;;;;;5.25;2.65;;;22.50;98.40;;;;;;5053722;28;20079;-65
2022/05/18 07:46:29;;;;;;;6.53;2.92;;;22.60;98.30;;;;;;5035594;28;20029;-65
2022/05/18 07:48:55;;;;;;;4.18;2.58;;;22.80;98.20;;;;;;5053936;28;20017;-66
2022/05/18 07:51:20;;;;;;;;;;;22.90;97.70;;;;;;5036112;28;20040;-66
2022/05/18 07:53:46;;;;;;;4.43;2.80;;;23.00;97.50;;;;;;5053696;28;19916;-66
2022/05/18 07:56:12;;;;;;;;;;;23.20;97.20;;;;;;5035572;28;20043;-67
2022/05/18 07:58:37;;;;;;;5.53;2.60;;;23.40;96.60;;;;;;5035705;28;20267;-67
2022/05/18 08:01:03;;;;;;;;;;;23.60;96.60;;;;;;5036155;28;20075;-66
2022/05/18 08:03:28;;;;;;;5.07;2.55;;;24.40;95.20;;;;;;5037044;28;19905;-66
2022/05/18 08:05:54;;;;;;;;;;;25.70;93.80;;;;;;5036485;28;20044;-66
2022/05/18 08:08:21;;;;;;;6.97;2.50;;;27.60;91.80;;;;;;5035555;28;20296;-66
2022/05/18 08:16:16;;;;;;;4.82;2.22;;;32.70;73.90;;;;;;5052577;28;20032;-67
2022/05/18 08:18:42;;;;;;;3.90;2.55;;;34.50;69.10;;;;;;5035228;28;20029;-66
2022/05/18 08:21:08;;;;;;;4.55;2.42;;;35.50;66.70;;;;;;5034780;28;20424;-66
2022/05/18 08:23:34;;;;;;;2.22;2.00;;;37.00;62.10;;;;;;5035062;28;20399;-68
2022/05/18 08:26:01;;;;;;;3.17;2.47;;;38.20;60.20;;;;;;5053096;28;20028;-66
2022/05/18 08:28:27;;;;;;;3.88;2.20;;;38.70;57.20;;;;;;5053144;28;20079;-66
2022/05/18 08:30:54;;;;;;;4.80;2.22;;;38.70;56.10;;;;;;5052768;28;20033;-66
2022/05/18 08:33:20;;;;;;;5.68;2.33;;;37.70;55.60;;;;;;5052774;28;20104;-68
2022/05/18 08:35:47;;;;;;;5.97;2.00;;;36.70;55.90;;;;;;5052868;28;20131;-67
2022/05/18 08:38:14;;;;;;;4.10;2.10;;;36.50;56.30;;;;;;5053521;28;20017;-67
2022/05/18 08:40:52;;;;;;;3.25;2.35;;;37.10;55.80;;;;;;5052968;28;20029;-67
2022/05/18 08:43:34;;;;;;;4.72;2.25;;;38.10;54.80;;;;;;5053053;28;20021;-67
2022/05/18 08:46:38;;;;;;;3.78;2.17;;;39.00;53.50;;;;;;5052593;28;20340;-67
2022/05/18 08:49:18;;;;;;;3.47;2.28;;;38.80;52.20;;;;;;5048629;28;20064;-67
2022/05/18 08:51:55;;;;;;;4.18;2.30;;;39.20;52.30;;;;;;5052558;28;20024;-65
2022/05/18 08:54:47;;;;;;;2.67;2.20;;;38.10;52.00;;;;;;5034636;28;20044;-66
2022/05/18 08:57:20;;;;;;;3.92;2.15;;;38.70;52.30;;;;;;5052661;28;20052;-66
2022/05/18 08:59:48;;;;;;;4.82;2.70;;;39.00;52.10;;;;;;5052720;28;20359;-67
2022/05/18 09:02:20;;;;;;;3.05;2.45;;;40.20;52.00;;;;;;5034331;28;20487;-66
2022/05/18 09:05:03;;;;;;;10.25;2.55;;;40.90;50.20;;;;;;5052303;28;20501;-66
2022/05/18 09:07:36;;;;;;;3.67;2.20;;;40.80;50.30;;;;;;5034377;28;20112;-67
2022/05/18 09:10:27;;;;;;;4.28;2.22;;;41.80;49.30;;;;;;5052542;28;20025;-67
2022/05/18 09:12:52;;;;;;;3.85;2.40;;;41.10;49.50;;;;;;5052741;28;20036;-67
2022/05/18 09:15:36;;;;;;;3.00;2.15;;;40.80;49.40;;;;;;5052106;28;20021;-65
2022/05/18 09:18:14;;;;;;;4.10;2.20;;;41.50;48.10;;;;;;5034380;28;20021;-66
2022/05/18 09:20:51;;;;;;;2.70;2.15;;;41.90;48.10;;;;;;5034455;28;20025;-65
2022/05/18 09:23:49;;;;;;;3.63;2.47;;;41.40;47.60;;;;;;5052200;28;20021;-66
2022/05/18 09:26:30;;;;;;;5.32;2.47;;;40.90;48.30;;;;;;5052190;28;20021;-66
2022/05/18 09:29:26;;;;;;;4.00;2.53;;;39.50;48.30;;;;;;5055722;28;20025;-66
2022/05/18 09:31:55;;;;;;;4.22;2.30;;;39.10;49.00;;;;;;5056316;28;20536;-67
2022/05/18 09:34:31;;;;;;;2.30;2.10;;;38.90;49.10;;;;;;5038392;28;20036;-67
2022/05/18 09:37:15;;;;;;;2.75;2.20;;;38.20;49.10;;;;;;5056194;28;20020;-67
2022/05/18 09:39:47;;;;;;;3.92;2.05;;;39.30;48.70;;;;;;5038355;28;20028;-67
2022/05/18 09:42:20;;;;;;;4.63;3.38;;;40.80;47.60;;;;;;5056443;28;20067;-65
2022/05/18 09:45:04;;;;;;;2.40;2.20;;;41.60;46.60;;;;;;5056790;28;20025;-67
2022/05/18 09:48:02;;;;;;;3.63;2.20;;;40.80;47.60;;;;;;5056767;28;20028;-66
2022/05/18 09:50:28;;;;;;;2.92;2.30;;;40.80;47.70;;;;;;5034197;28;20031;-66
2022/05/18 09:52:55;;;;;;;5.43;3.10;;;41.00;46.50;;;;;;5056931;28;20215;-66
2022/05/18 09:55:23;;;;;;;4.88;2.60;;;41.50;45.90;;;;;;5055852;28;20082;-66
2022/05/18 09:58:11;;;;;;;3.00;2.13;;;41.00;46.00;;;;;;5056077;28;20029;-66
2022/05/18 10:00:38;;;;;;;2.63;2.22;;;39.50;47.30;;;;;;5037874;28;20056;-66
2022/05/18 10:08:58;;;;;;;4.57;2.28;;;39.60;47.30;;;;;;5055825;28;20067;-66
2022/05/18 10:11:30;;;;;;;4.90;2.47;;;40.40;47.70;;;;;;5055726;28;20105;-66
2022/05/18 10:14:08;;;;;;;3.13;2.33;;;40.40;47.40;;;;;;5037597;28;20028;-66
2022/05/18 10:17:08;;;;;;;4.72;2.17;;;41.40;47.30;;;;;;5055577;28;20036;-66
2022/05/18 10:19:41;;;;;;;4.20;2.00;;;40.60;46.10;;;;;;5049481;28;20037;-66
2022/05/18 10:22:10;;;;;;;2.88;1.80;;;38.60;46.80;;;;;;5055632;28;20020;-66
2022/05/18 10:24:45;;;;;;;2.83;1.88;;;38.20;47.20;;;;;;5037424;28;20029;-66
2022/05/18 10:27:17;;;;;;;2.65;1.80;;;38.90;47.20;;;;;;5055441;28;20029;-66
2022/05/18 10:30:08;;;;;;;4.40;2.30;;;38.30;46.80;;;;;;5037244;28;20079;-66
2022/05/18 10:32:36;;;;;;;5.10;2.00;;;36.60;49.00;;;;;;5019144;28;20128;-66
2022/05/18 10:35:02;;;;;;;3.60;1.90;;;35.80;49.10;;;;;;5037210;28;20458;-66
2022/05/18 10:37:37;;;;;;;2.90;1.60;;;36.40;49.00;;;;;;5055170;28;20057;-66
2022/05/18 10:40:12;;;;;;;3.45;1.90;;;36.70;48.40;;;;;;5036492;28;20029;-66
2022/05/18 10:42:53;;;;;;;2.97;2.00;;;37.20;48.80;;;;;;5055628;28;20036;-66
2022/05/18 10:45:27;;;;;;;5.75;1.90;;;36.80;48.60;;;;;;5056587;28;20021;-67
2022/05/18 10:48:03;;;;;;;2.20;1.80;;;37.10;49.50;;;;;;5038222;28;20025;-67
2022/05/18 10:50:36;;;;;;;2.47;1.98;;;37.30;48.10;;;;;;5056585;28;20049;-67
2022/05/18 10:53:32;;;;;;;2.25;1.67;;;37.80;47.20;;;;;;5055360;28;20033;-66
2022/05/18 10:56:05;;;;;;;2.17;1.90;;;38.10;47.30;;;;;;5055292;28;20029;-67
2022/05/18 10:58:39;;;;;;;3.63;2.05;;;37.00;48.10;;;;;;5036801;28;20029;-66
2022/05/18 11:01:18;;;;;;;5.72;2.00;;;35.70;48.20;;;;;;5037532;28;20024;-67
2022/05/18 11:04:01;;;;;;;3.47;1.75;;;35.20;48.10;;;;;;5057125;28;20025;-67
2022/05/18 11:06:34;;;;;;;2.72;1.80;;;34.50;49.90;;;;;;5056519;28;20506;-67
2022/05/18 11:09:02;;;;;;;4.75;2.17;;;34.00;48.80;;;;;;5055186;28;20025;-67
2022/05/18 11:11:49;;;;;;;2.78;1.65;;;33.50;50.70;;;;;;5036980;28;20032;-69
2022/05/18 11:14:33;;;;;;;4.55;2.10;;;32.50;50.10;;;;;;5055299;28;20025;-67
2022/05/18 11:17:19;;;;;;;3.45;1.90;;;32.10;52.60;;;;;;5037179;28;20031;-67
2022/05/18 11:20:01;;;;;;;3.05;2.10;;;31.90;52.30;;;;;;5054678;28;20025;-66
2022/05/18 11:22:30;;;;;;;5.03;1.88;;;31.10;54.30;;;;;;5036771;28;20033;-67
2022/05/18 11:25:18;;;;;;;2.90;1.80;;;30.90;54.80;;;;;;5054949;28;20075;-66
2022/05/18 11:27:50;;;;;;;5.05;2.13;;;30.40;55.10;;;;;;5037004;28;20032;-66
2022/05/18 11:30:45;;;;;;;2.58;1.83;;;30.10;55.30;;;;;;5054654;28;20472;-66
2022/05/18 11:33:29;;;;;;;2.28;1.70;;;29.90;56.00;;;;;;5054942;28;20031;-66
2022/05/18 11:36:20;;;;;;;3.40;1.98;;;29.70;55.70;;;;;;5054114;28;20027;-66
2022/05/18 11:39:11;;;;;;;6.93;2.10;;;29.50;56.00;;;;;;5054316;28;20028;-66
2022/05/18 11:41:50;;;;;;;3.88;2.25;;;29.50;56.00;;;;;;5054017;28;20028;-66
2022/05/18 11:44:36;;;;;;;8.23;2.35;;;29.40;55.70;;;;;;5054200;28;20024;-66
2022/05/18 11:47:16;;;;;;;4.37;2.20;;;29.40;56.00;;;;;;5053686;28;20021;-66
2022/05/18 11:50:14;;;;;;;3.05;1.65;;;29.20;56.10;;;;;;5035522;28;20119;-66
2022/05/18 11:53:09;;;;;;;6.38;2.35;;;29.20;56.50;;;;;;5053846;28;20021;-66
2022/05/18 11:55:46;;;;;;;3.22;1.70;;;29.00;56.00;;;;;;5054079;28;20452;-66
2022/05/18 11:58:15;;;;;;;3.80;1.77;;;29.00;56.20;;;;;;5053554;28;20025;-66
2022/05/18 12:03:17;;;;;;;3.53;1.90;;;29.00;56.80;;;;;;5053792;28;20029;-66
2022/05/18 12:05:55;;;;;;;2.75;2.00;;;29.00;56.00;;;;;;5053241;28;20028;-65
2022/05/18 12:08:37;;;;;;;6.15;2.25;;;29.10;56.00;;;;;;5054301;28;20032;-66
2022/05/18 12:11:21;;;;;;;3.38;1.73;;;29.10;55.80;;;;;;5053669;28;20035;-66
2022/05/18 12:14:05;;;;;;;5.97;2.35;;;29.10;56.30;;;;;;5053808;28;20074;-66
2022/05/18 12:16:52;;;;;;;6.03;1.95;;;29.10;55.90;;;;;;5052923;28;20025;-66
2022/05/18 12:19:22;;;;;;;3.88;1.92;;;28.90;55.90;;;;;;5053306;28;20025;-66
2022/05/18 12:21:55;;;;;;;4.05;2.00;;;28.90;55.80;;;;;;5053232;28;20111;-66
2022/05/18 12:24:23;;;;;;;4.32;1.80;;;28.90;56.30;;;;;;5053617;28;20064;-65
2022/05/18 12:26:49;;;;;;;3.22;2.00;;;28.90;56.30;;;;;;5053023;28;20412;-66
2022/05/18 12:29:19;;;;;;;4.18;1.80;;;29.00;56.20;;;;;;5053046;28;20084;-66
2022/05/18 12:31:46;;;;;;;2.80;1.80;;;29.10;55.30;;;;;;5053163;28;20025;-66
2022/05/18 12:34:12;;;;;;;2.30;1.77;;;29.00;55.20;;;;;;5052636;28;20499;-66
2022/05/18 12:36:45;;;;;;;5.13;1.90;;;28.90;55.30;;;;;;5052410;28;20040;-66
2022/05/18 12:39:18;;;;;;;4.28;2.20;;;28.90;55.40;;;;;;5052879;28;20090;-66
2022/05/18 12:41:52;;;;;;;1.88;1.50;;;28.90;55.40;;;;;;5053023;28;20443;-66
2022/05/18 12:44:37;;;;;;;4.43;2.13;;;28.90;55.70;;;;;;5052724;28;20498;-65
2022/05/18 12:47:17;;;;;;;5.38;2.13;;;29.00;55.60;;;;;;5034525;28;20029;-65
2022/05/18 12:49:44;;;;;;;5.40;2.03;;;29.00;55.90;;;;;;5052793;28;20021;-65
2022/05/18 12:52:15;;;;;;;6.03;1.70;;;29.10;55.50;;;;;;5034609;28;20035;-65
2022/05/18 12:54:47;;;;;;;4.93;1.95;;;29.20;55.30;;;;;;5052626;28;20029;-66
2022/05/18 12:57:44;;;;;;;2.80;1.60;;;29.20;54.40;;;;;;5052298;28;20570;-66
2022/05/18 13:00:25;;;;;;;3.38;1.58;;;29.20;54.30;;;;;;5052382;28;20075;-65
2022/05/18 13:03:00;;;;;;;3.58;1.98;;;29.30;54.50;;;;;;5034198;28;20033;-66
2022/05/18 13:05:26;;;;;;;2.47;1.57;;;29.30;54.30;;;;;;5052485;28;20471;-65
2022/05/18 13:08:24;;;;;;;2.97;1.38;;;29.20;54.40;;;;;;5052186;28;20083;-65
2022/05/18 13:11:35;;;;;;;3.05;1.75;;;29.10;54.70;;;;;;4964958;28;20173;-66
2022/05/18 13:14:00;;;;;;;4.00;1.67;;;29.10;54.80;;;;;;4971630;28;20045;-66
2022/05/18 13:17:04;;;;;;;3.80;1.42;;;29.10;55.00;;;;;;4971382;28;20129;-65
2022/05/18 13:19:33;;;;;;;3.05;1.83;;;29.10;54.20;;;;;;4940048;28;20046;-65
2022/05/18 13:22:07;;;;;;;6.22;2.42;;;29.10;54.50;;;;;;4971668;28;20031;-66
2022/05/18 13:24:46;;;;;;;6.32;2.15;;;29.30;54.60;;;;;;4971719;28;20142;-65